sensor_id;sensor_type;location;lat;lon;timestamp;P1;P2;P0
45700;PMS5003;36277;32.852;-116.998;2022-11-23T00:01:23;2.00;2.00;2.00
45700;PMS5003;36277;32.852;-116.998;2022-11-23T00:03:50;1.80;1.80;1.80
45700;PMS5003;36277;32.852;-116.998;2022-11-23T00:06:18;2.00;2.00;2.00
45700;PMS5003;36277;32.852;-116.998;2022-11-23T00:08:46;1.00;1.00;1.00
45700;PMS5003;36277;32.852;-116.998;2022-11-23T00:11:13;0.00;0.00;0.00
45700;PMS5003;36277;32.852;-116.998;2022-11-23T00:13:40;1.80;1.80;1.20
45700;PMS5003;36277;32.852;-116.998;2022-11-23T00:16:07;1.20;1.20;1.20
45700;PMS5003;36277;32.852;-116.998;2022-11-23T00:18:36;1.00;1.00;1.00
45700;PMS5003;36277;32.852;-116.998;2022-11-23T00:21:06;1.80;1.80;1.60
45700;PMS5003;36277;32.852;-116.998;2022-11-23T00:23:33;1.60;1.60;1.40
45700;PMS5003;36277;32.852;-116.998;2022-11-23T00:26:00;1.00;1.00;1.00
45700;PMS5003;36277;32.852;-116.998;2022-11-23T00:28:27;1.40;1.40;1.20
45700;PMS5003;36277;32.852;-116.998;2022-11-23T00:30:54;1.60;1.60;1.60
45700;PMS5003;36277;32.852;-116.998;2022-11-23T00:33:20;1.40;1.40;1.40
45700;PMS5003;36277;32.852;-116.998;2022-11-23T00:35:47;1.00;1.00;1.00
45700;PMS5003;36277;32.852;-116.998;2022-11-23T00:38:22;2.00;2.00;1.80
45700;PMS5003;36277;32.852;-116.998;2022-11-23T00:40:49;1.80;1.80;1.60
45700;PMS5003;36277;32.852;-116.998;2022-11-23T00:43:21;3.00;3.00;2.60
45700;PMS5003;36277;32.852;-116.998;2022-11-23T00:45:47;1.80;1.80;1.20
45700;PMS5003;36277;32.852;-116.998;2022-11-23T00:48:15;1.00;1.00;1.00
45700;PMS5003;36277;32.852;-116.998;2022-11-23T00:50:41;1.00;1.00;1.00
45700;PMS5003;36277;32.852;-116.998;2022-11-23T00:53:07;1.20;1.20;1.00
45700;PMS5003;36277;32.852;-116.998;2022-11-23T00:55:34;1.80;1.80;1.40
45700;PMS5003;36277;32.852;-116.998;2022-11-23T00:58:00;2.00;2.00;1.60
45700;PMS5003;36277;32.852;-116.998;2022-11-23T01:00:27;1.00;1.00;1.00
45700;PMS5003;36277;32.852;-116.998;2022-11-23T01:02:53;2.00;2.00;2.00
45700;PMS5003;36277;32.852;-116.998;2022-11-23T01:05:19;1.00;1.00;1.00
45700;PMS5003;36277;32.852;-116.998;2022-11-23T01:07:45;1.00;1.00;1.00
45700;PMS5003;36277;32.852;-116.998;2022-11-23T01:10:11;2.40;2.40;2.00
45700;PMS5003;36277;32.852;-116.998;2022-11-23T01:12:38;2.00;2.00;1.80
45700;PMS5003;36277;32.852;-116.998;2022-11-23T01:15:04;1.40;1.40;1.00
45700;PMS5003;36277;32.852;-116.998;2022-11-23T01:17:30;1.00;1.00;1.00
45700;PMS5003;36277;32.852;-116.998;2022-11-23T01:19:57;1.00;1.00;1.00
45700;PMS5003;36277;32.852;-116.998;2022-11-23T01:22:23;1.40;1.40;1.00
45700;PMS5003;36277;32.852;-116.998;2022-11-23T01:24:49;1.00;1.00;1.00
45700;PMS5003;36277;32.852;-116.998;2022-11-23T01:27:15;2.00;2.00;2.00
45700;PMS5003;36277;32.852;-116.998;2022-11-23T01:29:42;2.00;2.00;2.00
45700;PMS5003;36277;32.852;-116.998;2022-11-23T01:32:08;1.60;1.60;1.60
45700;PMS5003;36277;32.852;-116.998;2022-11-23T01:34:34;2.00;2.00;2.00
45700;PMS5003;36277;32.852;-116.998;2022-11-23T01:37:00;0.00;0.00;0.00
45700;PMS5003;36277;32.852;-116.998;2022-11-23T01:39:27;1.40;1.40;1.00
45700;PMS5003;36277;32.852;-116.998;2022-11-23T01:41:53;2.00;2.00;2.00
45700;PMS5003;36277;32.852;-116.998;2022-11-23T01:44:29;1.80;1.80;1.80
45700;PMS5003;36277;32.852;-116.998;2022-11-23T01:46:58;1.00;1.00;1.00
45700;PMS5003;36277;32.852;-116.998;2022-11-23T01:49:26;2.00;2.00;2.00
45700;PMS5003;36277;32.852;-116.998;2022-11-23T01:51:58;1.80;1.80;1.20
45700;PMS5003;36277;32.852;-116.998;2022-11-23T01:54:45;2.00;2.00;1.80
45700;PMS5003;36277;32.852;-116.998;2022-11-23T01:57:19;3.00;3.00;3.00
45700;PMS5003;36277;32.852;-116.998;2022-11-23T01:59:50;2.00;2.00;1.00
45700;PMS5003;36277;32.852;-116.998;2022-11-23T02:02:19;2.00;2.00;2.00
45700;PMS5003;36277;32.852;-116.998;2022-11-23T02:04:46;2.80;2.80;2.60
45700;PMS5003;36277;32.852;-116.998;2022-11-23T02:07:17;3.00;3.00;2.60
45700;PMS5003;36277;32.852;-116.998;2022-11-23T02:09:45;2.00;2.00;2.00
45700;PMS5003;36277;32.852;-116.998;2022-11-23T02:12:12;1.00;1.00;1.00
45700;PMS5003;36277;32.852;-116.998;2022-11-23T02:14:40;1.20;1.20;1.20
45700;PMS5003;36277;32.852;-116.998;2022-11-23T02:17:07;3.00;3.00;3.00
45700;PMS5003;36277;32.852;-116.998;2022-11-23T02:22:18;2.00;2.00;2.00
45700;PMS5003;36277;32.852;-116.998;2022-11-23T02:24:55;2.60;2.60;2.00
45700;PMS5003;36277;32.852;-116.998;2022-11-23T02:27:22;3.20;3.20;3.00
45700;PMS5003;36277;32.852;-116.998;2022-11-23T02:29:49;2.60;2.60;2.00
45700;PMS5003;36277;32.852;-116.998;2022-11-23T02:32:19;3.40;3.40;3.40
45700;PMS5003;36277;32.852;-116.998;2022-11-23T02:34:48;2.60;2.60;2.40
45700;PMS5003;36277;32.852;-116.998;2022-11-23T02:37:15;3.40;3.40;3.00
45700;PMS5003;36277;32.852;-116.998;2022-11-23T02:39:47;2.00;2.00;1.80
45700;PMS5003;36277;32.852;-116.998;2022-11-23T02:42:16;4.00;4.00;3.00
45700;PMS5003;36277;32.852;-116.998;2022-11-23T02:47:41;3.20;3.20;3.00
45700;PMS5003;36277;32.852;-116.998;2022-11-23T02:50:07;1.40;1.40;1.00
45700;PMS5003;36277;32.852;-116.998;2022-11-23T02:52:34;3.00;3.00;3.00
45700;PMS5003;36277;32.852;-116.998;2022-11-23T02:55:00;3.20;3.20;3.00
45700;PMS5003;36277;32.852;-116.998;2022-11-23T02:57:26;2.60;2.60;2.20
45700;PMS5003;36277;32.852;-116.998;2022-11-23T02:59:52;3.80;3.80;3.40
45700;PMS5003;36277;32.852;-116.998;2022-11-23T03:02:18;4.00;4.00;4.00
45700;PMS5003;36277;32.852;-116.998;2022-11-23T03:04:45;3.00;3.00;3.00
45700;PMS5003;36277;32.852;-116.998;2022-11-23T03:07:11;4.00;4.00;3.80
45700;PMS5003;36277;32.852;-116.998;2022-11-23T03:09:37;4.80;4.80;4.00
45700;PMS5003;36277;32.852;-116.998;2022-11-23T03:12:03;4.00;4.00;4.00
45700;PMS5003;36277;32.852;-116.998;2022-11-23T03:14:30;4.00;4.00;3.60
45700;PMS5003;36277;32.852;-116.998;2022-11-23T03:16:56;5.00;5.00;4.00
45700;PMS5003;36277;32.852;-116.998;2022-11-23T03:19:23;3.20;3.20;3.00
45700;PMS5003;36277;32.852;-116.998;2022-11-23T03:21:52;4.40;4.40;4.40
45700;PMS5003;36277;32.852;-116.998;2022-11-23T03:24:18;3.80;3.80;3.80
45700;PMS5003;36277;32.852;-116.998;2022-11-23T03:26:44;4.00;4.00;3.80
45700;PMS5003;36277;32.852;-116.998;2022-11-23T03:29:11;4.20;4.20;4.20
45700;PMS5003;36277;32.852;-116.998;2022-11-23T03:31:37;4.00;4.00;4.00
45700;PMS5003;36277;32.852;-116.998;2022-11-23T03:34:03;3.60;3.60;3.00
45700;PMS5003;36277;32.852;-116.998;2022-11-23T03:36:29;5.00;5.00;4.80
45700;PMS5003;36277;32.852;-116.998;2022-11-23T03:38:57;4.00;4.00;3.60
45700;PMS5003;36277;32.852;-116.998;2022-11-23T03:41:23;5.00;5.00;4.00
45700;PMS5003;36277;32.852;-116.998;2022-11-23T03:43:49;3.60;3.60;3.00
45700;PMS5003;36277;32.852;-116.998;2022-11-23T03:46:15;6.00;6.00;5.40
45700;PMS5003;36277;32.852;-116.998;2022-11-23T03:48:42;5.00;5.00;4.60
45700;PMS5003;36277;32.852;-116.998;2022-11-23T03:51:08;5.00;5.00;4.20
45700;PMS5003;36277;32.852;-116.998;2022-11-23T03:53:35;6.00;6.00;5.00
45700;PMS5003;36277;32.852;-116.998;2022-11-23T03:56:01;4.00;4.00;4.00
45700;PMS5003;36277;32.852;-116.998;2022-11-23T03:58:28;3.00;3.00;3.00
45700;PMS5003;36277;32.852;-116.998;2022-11-23T04:00:56;5.40;5.40;5.00
45700;PMS5003;36277;32.852;-116.998;2022-11-23T04:03:22;5.20;5.20;5.00
45700;PMS5003;36277;32.852;-116.998;2022-11-23T04:05:49;5.00;5.00;4.20
45700;PMS5003;36277;32.852;-116.998;2022-11-23T04:08:15;4.80;4.80;4.20
45700;PMS5003;36277;32.852;-116.998;2022-11-23T04:10:42;5.80;5.80;5.60
45700;PMS5003;36277;32.852;-116.998;2022-11-23T04:13:10;6.00;6.00;5.00
45700;PMS5003;36277;32.852;-116.998;2022-11-23T04:15:36;5.00;5.00;4.80
45700;PMS5003;36277;32.852;-116.998;2022-11-23T04:18:02;6.40;6.40;5.80
45700;PMS5003;36277;32.852;-116.998;2022-11-23T04:20:29;7.40;7.40;6.60
45700;PMS5003;36277;32.852;-116.998;2022-11-23T04:22:56;5.60;5.60;5.00
45700;PMS5003;36277;32.852;-116.998;2022-11-23T04:25:22;6.00;6.00;5.40
45700;PMS5003;36277;32.852;-116.998;2022-11-23T04:27:49;5.00;5.00;4.20
45700;PMS5003;36277;32.852;-116.998;2022-11-23T04:30:15;5.00;5.00;5.00
45700;PMS5003;36277;32.852;-116.998;2022-11-23T04:32:45;5.60;5.60;5.00
45700;PMS5003;36277;32.852;-116.998;2022-11-23T04:35:12;5.20;5.20;5.20
45700;PMS5003;36277;32.852;-116.998;2022-11-23T04:37:41;5.00;5.00;4.60
45700;PMS5003;36277;32.852;-116.998;2022-11-23T04:40:07;8.60;8.60;6.80
45700;PMS5003;36277;32.852;-116.998;2022-11-23T04:42:34;4.80;4.80;4.40
45700;PMS5003;36277;32.852;-116.998;2022-11-23T04:45:01;5.60;5.60;5.20
45700;PMS5003;36277;32.852;-116.998;2022-11-23T04:47:27;6.00;6.00;5.00
45700;PMS5003;36277;32.852;-116.998;2022-11-23T04:49:54;7.20;7.20;5.40
45700;PMS5003;36277;32.852;-116.998;2022-11-23T04:52:20;5.40;5.40;4.80
45700;PMS5003;36277;32.852;-116.998;2022-11-23T04:54:46;7.00;7.00;6.00
45700;PMS5003;36277;32.852;-116.998;2022-11-23T04:57:13;6.00;6.00;5.60
45700;PMS5003;36277;32.852;-116.998;2022-11-23T04:59:39;0.00;0.00;0.00
45700;PMS5003;36277;32.852;-116.998;2022-11-23T05:02:05;6.80;6.80;6.20
45700;PMS5003;36277;32.852;-116.998;2022-11-23T05:04:32;4.00;4.00;3.60
45700;PMS5003;36277;32.852;-116.998;2022-11-23T05:06:59;6.40;6.40;6.00
45700;PMS5003;36277;32.852;-116.998;2022-11-23T05:09:25;6.00;6.00;5.00
45700;PMS5003;36277;32.852;-116.998;2022-11-23T05:11:51;5.20;5.20;5.20
45700;PMS5003;36277;32.852;-116.998;2022-11-23T05:14:17;5.80;5.80;4.80
45700;PMS5003;36277;32.852;-116.998;2022-11-23T05:16:44;5.00;5.00;5.00
45700;PMS5003;36277;32.852;-116.998;2022-11-23T05:19:10;4.00;4.00;3.80
45700;PMS5003;36277;32.852;-116.998;2022-11-23T05:21:37;5.00;5.00;5.00
45700;PMS5003;36277;32.852;-116.998;2022-11-23T05:24:03;5.00;5.00;4.40
45700;PMS5003;36277;32.852;-116.998;2022-11-23T05:26:30;5.60;5.60;5.00
45700;PMS5003;36277;32.852;-116.998;2022-11-23T05:28:56;7.00;7.00;5.00
45700;PMS5003;36277;32.852;-116.998;2022-11-23T05:31:23;5.00;5.00;4.40
45700;PMS5003;36277;32.852;-116.998;2022-11-23T05:33:49;5.00;5.00;4.80
45700;PMS5003;36277;32.852;-116.998;2022-11-23T05:36:15;5.40;5.40;5.00
45700;PMS5003;36277;32.852;-116.998;2022-11-23T05:38:42;4.80;4.80;4.00
45700;PMS5003;36277;32.852;-116.998;2022-11-23T05:41:08;5.80;5.80;5.40
45700;PMS5003;36277;32.852;-116.998;2022-11-23T05:43:34;5.20;5.20;5.00
45700;PMS5003;36277;32.852;-116.998;2022-11-23T05:46:01;6.60;6.60;6.00
45700;PMS5003;36277;32.852;-116.998;2022-11-23T05:48:28;6.40;6.40;4.80
45700;PMS5003;36277;32.852;-116.998;2022-11-23T05:50:54;5.00;5.00;4.40
45700;PMS5003;36277;32.852;-116.998;2022-11-23T05:53:20;6.60;6.60;5.40
45700;PMS5003;36277;32.852;-116.998;2022-11-23T05:55:47;4.00;4.00;3.20
45700;PMS5003;36277;32.852;-116.998;2022-11-23T05:58:13;4.60;4.60;4.20
45700;PMS5003;36277;32.852;-116.998;2022-11-23T06:00:39;6.00;6.00;5.00
45700;PMS5003;36277;32.852;-116.998;2022-11-23T06:03:06;5.40;5.40;4.40
45700;PMS5003;36277;32.852;-116.998;2022-11-23T06:05:32;5.00;5.00;4.80
45700;PMS5003;36277;32.852;-116.998;2022-11-23T06:07:59;5.00;5.00;4.00
45700;PMS5003;36277;32.852;-116.998;2022-11-23T06:10:25;5.00;5.00;4.80
45700;PMS5003;36277;32.852;-116.998;2022-11-23T06:12:52;4.60;4.60;4.00
45700;PMS5003;36277;32.852;-116.998;2022-11-23T06:15:18;4.00;4.00;3.60
45700;PMS5003;36277;32.852;-116.998;2022-11-23T06:17:45;5.00;5.00;4.80
45700;PMS5003;36277;32.852;-116.998;2022-11-23T06:20:11;5.20;5.20;4.20
45700;PMS5003;36277;32.852;-116.998;2022-11-23T06:22:38;6.00;6.00;5.00
45700;PMS5003;36277;32.852;-116.998;2022-11-23T06:25:04;6.00;6.00;5.00
45700;PMS5003;36277;32.852;-116.998;2022-11-23T06:27:31;5.60;5.60;5.00
45700;PMS5003;36277;32.852;-116.998;2022-11-23T06:29:57;3.60;3.60;3.40
45700;PMS5003;36277;32.852;-116.998;2022-11-23T06:32:23;5.00;5.00;4.00
45700;PMS5003;36277;32.852;-116.998;2022-11-23T06:34:50;4.00;4.00;3.60
45700;PMS5003;36277;32.852;-116.998;2022-11-23T06:37:16;5.00;5.00;5.00
45700;PMS5003;36277;32.852;-116.998;2022-11-23T06:39:42;4.20;4.20;3.80
45700;PMS5003;36277;32.852;-116.998;2022-11-23T06:42:09;4.80;4.80;4.60
45700;PMS5003;36277;32.852;-116.998;2022-11-23T06:44:35;5.60;5.60;5.00
45700;PMS5003;36277;32.852;-116.998;2022-11-23T06:47:01;5.00;5.00;4.80
45700;PMS5003;36277;32.852;-116.998;2022-11-23T06:49:27;3.80;3.80;2.80
45700;PMS5003;36277;32.852;-116.998;2022-11-23T06:51:53;6.00;6.00;5.00
45700;PMS5003;36277;32.852;-116.998;2022-11-23T06:54:20;3.60;3.60;2.80
45700;PMS5003;36277;32.852;-116.998;2022-11-23T06:56:46;5.40;5.40;5.00
45700;PMS5003;36277;32.852;-116.998;2022-11-23T06:59:12;4.00;4.00;3.00
45700;PMS5003;36277;32.852;-116.998;2022-11-23T07:01:39;5.80;5.80;5.20
45700;PMS5003;36277;32.852;-116.998;2022-11-23T07:04:06;5.20;5.20;4.00
45700;PMS5003;36277;32.852;-116.998;2022-11-23T07:06:32;6.20;6.20;4.00
45700;PMS5003;36277;32.852;-116.998;2022-11-23T07:08:58;6.80;6.80;5.00
45700;PMS5003;36277;32.852;-116.998;2022-11-23T07:11:24;4.80;4.80;4.20
45700;PMS5003;36277;32.852;-116.998;2022-11-23T07:13:51;5.00;5.00;4.00
45700;PMS5003;36277;32.852;-116.998;2022-11-23T07:16:17;6.00;6.00;5.00
45700;PMS5003;36277;32.852;-116.998;2022-11-23T07:18:43;6.20;6.20;5.40
45700;PMS5003;36277;32.852;-116.998;2022-11-23T07:21:09;2.00;2.00;2.00
45700;PMS5003;36277;32.852;-116.998;2022-11-23T07:23:35;3.80;3.80;3.20
45700;PMS5003;36277;32.852;-116.998;2022-11-23T07:26:05;4.60;4.60;4.40
45700;PMS5003;36277;32.852;-116.998;2022-11-23T07:28:32;5.00;5.00;5.00
45700;PMS5003;36277;32.852;-116.998;2022-11-23T07:30:59;5.00;5.00;4.00
45700;PMS5003;36277;32.852;-116.998;2022-11-23T07:33:25;5.40;5.40;5.00
45700;PMS5003;36277;32.852;-116.998;2022-11-23T07:35:51;4.40;4.40;4.00
45700;PMS5003;36277;32.852;-116.998;2022-11-23T07:38:17;4.80;4.80;4.00
45700;PMS5003;36277;32.852;-116.998;2022-11-23T07:40:47;4.20;4.20;4.00
45700;PMS5003;36277;32.852;-116.998;2022-11-23T07:43:15;4.00;4.00;3.20
45700;PMS5003;36277;32.852;-116.998;2022-11-23T07:45:41;5.00;5.00;4.00
45700;PMS5003;36277;32.852;-116.998;2022-11-23T07:48:08;4.20;4.20;3.80
45700;PMS5003;36277;32.852;-116.998;2022-11-23T07:50:36;3.80;3.80;3.60
45700;PMS5003;36277;32.852;-116.998;2022-11-23T07:53:04;2.20;2.20;2.00
45700;PMS5003;36277;32.852;-116.998;2022-11-23T07:55:31;4.80;4.80;3.80
45700;PMS5003;36277;32.852;-116.998;2022-11-23T07:57:58;3.40;3.40;3.20
45700;PMS5003;36277;32.852;-116.998;2022-11-23T08:00:25;5.00;5.00;4.00
45700;PMS5003;36277;32.852;-116.998;2022-11-23T08:02:52;4.60;4.60;4.20
45700;PMS5003;36277;32.852;-116.998;2022-11-23T08:05:18;3.60;3.60;3.00
45700;PMS5003;36277;32.852;-116.998;2022-11-23T08:07:45;3.00;3.00;3.00
45700;PMS5003;36277;32.852;-116.998;2022-11-23T08:10:12;3.00;3.00;2.60
45700;PMS5003;36277;32.852;-116.998;2022-11-23T08:12:38;4.00;4.00;3.00
45700;PMS5003;36277;32.852;-116.998;2022-11-23T08:15:05;5.00;5.00;4.60
45700;PMS5003;36277;32.852;-116.998;2022-11-23T08:17:32;3.20;3.20;3.20
45700;PMS5003;36277;32.852;-116.998;2022-11-23T08:19:58;4.20;4.20;4.00
45700;PMS5003;36277;32.852;-116.998;2022-11-23T08:22:24;4.00;4.00;3.00
45700;PMS5003;36277;32.852;-116.998;2022-11-23T08:24:51;4.00;4.00;3.00
45700;PMS5003;36277;32.852;-116.998;2022-11-23T08:27:17;4.00;4.00;3.20
45700;PMS5003;36277;32.852;-116.998;2022-11-23T08:29:44;3.60;3.60;3.00
45700;PMS5003;36277;32.852;-116.998;2022-11-23T08:32:10;4.00;4.00;3.75
45700;PMS5003;36277;32.852;-116.998;2022-11-23T08:34:37;3.00;3.00;3.00
45700;PMS5003;36277;32.852;-116.998;2022-11-23T08:37:03;3.20;3.20;3.00
45700;PMS5003;36277;32.852;-116.998;2022-11-23T08:39:29;4.00;4.00;3.60
45700;PMS5003;36277;32.852;-116.998;2022-11-23T08:41:55;3.00;3.00;3.00
45700;PMS5003;36277;32.852;-116.998;2022-11-23T08:44:22;3.00;3.00;2.80
45700;PMS5003;36277;32.852;-116.998;2022-11-23T08:46:48;3.00;3.00;2.40
45700;PMS5003;36277;32.852;-116.998;2022-11-23T08:49:15;3.20;3.20;3.00
45700;PMS5003;36277;32.852;-116.998;2022-11-23T08:51:41;3.00;3.00;3.00
45700;PMS5003;36277;32.852;-116.998;2022-11-23T08:54:07;4.00;4.00;4.00
45700;PMS5003;36277;32.852;-116.998;2022-11-23T08:56:33;4.75;4.75;4.00
45700;PMS5003;36277;32.852;-116.998;2022-11-23T08:58:59;3.00;3.00;3.00
45700;PMS5003;36277;32.852;-116.998;2022-11-23T09:01:26;3.75;3.75;3.00
45700;PMS5003;36277;32.852;-116.998;2022-11-23T09:03:52;4.25;4.25;4.00
45700;PMS5003;36277;32.852;-116.998;2022-11-23T09:06:19;4.40;4.40;4.00
45700;PMS5003;36277;32.852;-116.998;2022-11-23T09:08:45;2.60;2.60;2.60
45700;PMS5003;36277;32.852;-116.998;2022-11-23T09:11:12;3.00;3.00;3.00
45700;PMS5003;36277;32.852;-116.998;2022-11-23T09:13:38;2.75;2.75;2.75
45700;PMS5003;36277;32.852;-116.998;2022-11-23T09:16:05;4.00;4.00;3.75
45700;PMS5003;36277;32.852;-116.998;2022-11-23T09:18:31;3.00;3.00;2.75
45700;PMS5003;36277;32.852;-116.998;2022-11-23T09:21:00;3.00;3.00;3.00
45700;PMS5003;36277;32.852;-116.998;2022-11-23T09:23:30;3.00;3.00;2.00
45700;PMS5003;36277;32.852;-116.998;2022-11-23T09:25:57;3.00;3.00;3.00
45700;PMS5003;36277;32.852;-116.998;2022-11-23T09:28:24;3.00;3.00;2.00
45700;PMS5003;36277;32.852;-116.998;2022-11-23T09:30:53;3.50;3.50;3.25
45700;PMS5003;36277;32.852;-116.998;2022-11-23T09:33:20;2.00;2.00;1.50
45700;PMS5003;36277;32.852;-116.998;2022-11-23T09:35:54;3.50;3.50;3.00
45700;PMS5003;36277;32.852;-116.998;2022-11-23T09:38:25;3.00;3.00;2.75
45700;PMS5003;36277;32.852;-116.998;2022-11-23T09:40:55;3.00;3.00;3.00
45700;PMS5003;36277;32.852;-116.998;2022-11-23T09:49:17;2.20;2.20;2.00
45700;PMS5003;36277;32.852;-116.998;2022-11-23T09:51:46;3.00;3.00;2.00
45700;PMS5003;36277;32.852;-116.998;2022-11-23T09:56:55;2.00;2.00;2.00
45700;PMS5003;36277;32.852;-116.998;2022-11-23T09:59:25;3.20;3.20;3.00
45700;PMS5003;36277;32.852;-116.998;2022-11-23T10:01:55;2.25;2.25;2.00
45700;PMS5003;36277;32.852;-116.998;2022-11-23T10:04:23;3.00;3.00;2.00
45700;PMS5003;36277;32.852;-116.998;2022-11-23T10:06:51;3.00;3.00;2.75
45700;PMS5003;36277;32.852;-116.998;2022-11-23T10:17:44;2.50;2.50;2.50
45700;PMS5003;36277;32.852;-116.998;2022-11-23T10:23:12;2.50;2.50;2.25
45700;PMS5003;36277;32.852;-116.998;2022-11-23T10:25:47;2.00;2.00;1.40
45700;PMS5003;36277;32.852;-116.998;2022-11-23T10:28:18;2.00;2.00;2.00
45700;PMS5003;36277;32.852;-116.998;2022-11-23T10:31:01;2.00;2.00;2.00
45700;PMS5003;36277;32.852;-116.998;2022-11-23T10:33:52;2.00;2.00;2.00
45700;PMS5003;36277;32.852;-116.998;2022-11-23T10:36:19;2.20;2.20;2.00
45700;PMS5003;36277;32.852;-116.998;2022-11-23T10:38:47;2.00;2.00;2.00
45700;PMS5003;36277;32.852;-116.998;2022-11-23T10:41:25;2.00;2.00;2.00
45700;PMS5003;36277;32.852;-116.998;2022-11-23T10:46:43;1.25;1.25;1.25
45700;PMS5003;36277;32.852;-116.998;2022-11-23T10:51:49;1.50;1.50;1.00
45700;PMS5003;36277;32.852;-116.998;2022-11-23T10:54:47;2.00;2.00;2.00
45700;PMS5003;36277;32.852;-116.998;2022-11-23T10:57:28;2.00;2.00;2.00
45700;PMS5003;36277;32.852;-116.998;2022-11-23T11:00:04;2.00;2.00;2.00
45700;PMS5003;36277;32.852;-116.998;2022-11-23T11:02:42;2.00;2.00;2.00
45700;PMS5003;36277;32.852;-116.998;2022-11-23T11:05:11;2.00;2.00;1.50
45700;PMS5003;36277;32.852;-116.998;2022-11-23T11:07:57;2.00;2.00;2.00
45700;PMS5003;36277;32.852;-116.998;2022-11-23T11:13:25;2.00;2.00;2.00
45700;PMS5003;36277;32.852;-116.998;2022-11-23T11:15:59;2.00;2.00;1.50
45700;PMS5003;36277;32.852;-116.998;2022-11-23T11:18:36;2.00;2.00;2.00
45700;PMS5003;36277;32.852;-116.998;2022-11-23T11:21:09;2.50;2.50;2.00
45700;PMS5003;36277;32.852;-116.998;2022-11-23T11:23:59;2.00;2.00;1.75
45700;PMS5003;36277;32.852;-116.998;2022-11-23T11:26:46;2.00;2.00;1.25
45700;PMS5003;36277;32.852;-116.998;2022-11-23T11:29:31;2.00;2.00;2.00
45700;PMS5003;36277;32.852;-116.998;2022-11-23T11:32:02;2.50;2.50;2.50
45700;PMS5003;36277;32.852;-116.998;2022-11-23T11:39:31;2.00;2.00;2.00
45700;PMS5003;36277;32.852;-116.998;2022-11-23T11:42:20;2.00;2.00;2.00
45700;PMS5003;36277;32.852;-116.998;2022-11-23T11:44:55;2.00;2.00;2.00
45700;PMS5003;36277;32.852;-116.998;2022-11-23T11:47:59;2.00;2.00;1.50
45700;PMS5003;36277;32.852;-116.998;2022-11-23T11:50:27;2.50;2.50;2.50
45700;PMS5003;36277;32.852;-116.998;2022-11-23T11:56:22;2.25;2.25;2.00
45700;PMS5003;36277;32.852;-116.998;2022-11-23T12:04:40;2.00;2.00;1.25
45700;PMS5003;36277;32.852;-116.998;2022-11-23T12:07:13;2.75;2.75;2.00
45700;PMS5003;36277;32.852;-116.998;2022-11-23T12:09:41;2.00;2.00;2.00
45700;PMS5003;36277;32.852;-116.998;2022-11-23T12:12:13;2.50;2.50;2.50
45700;PMS5003;36277;32.852;-116.998;2022-11-23T12:14:41;2.00;2.00;2.00
45700;PMS5003;36277;32.852;-116.998;2022-11-23T12:23:08;2.00;2.00;2.00
45700;PMS5003;36277;32.852;-116.998;2022-11-23T12:25:46;1.50;1.50;1.25
45700;PMS5003;36277;32.852;-116.998;2022-11-23T12:33:52;2.75;2.75;2.00
45700;PMS5003;36277;32.852;-116.998;2022-11-23T12:44:42;1.00;1.00;1.00
45700;PMS5003;36277;32.852;-116.998;2022-11-23T12:50:36;2.00;2.00;2.00
45700;PMS5003;36277;32.852;-116.998;2022-11-23T12:53:09;2.00;2.00;2.00
45700;PMS5003;36277;32.852;-116.998;2022-11-23T12:55:51;1.25;1.25;1.00
45700;PMS5003;36277;32.852;-116.998;2022-11-23T12:58:29;2.00;2.00;1.75
45700;PMS5003;36277;32.852;-116.998;2022-11-23T13:06:29;2.00;2.00;2.00
45700;PMS5003;36277;32.852;-116.998;2022-11-23T13:18:05;1.00;1.00;1.00
45700;PMS5003;36277;32.852;-116.998;2022-11-23T13:23:33;2.00;2.00;2.00
45700;PMS5003;36277;32.852;-116.998;2022-11-23T13:26:11;1.50;1.50;1.00
45700;PMS5003;36277;32.852;-116.998;2022-11-23T13:28:38;1.50;1.50;1.50
45700;PMS5003;36277;32.852;-116.998;2022-11-23T13:33:44;1.00;1.00;1.00
45700;PMS5003;36277;32.852;-116.998;2022-11-23T13:36:34;3.00;3.00;2.75
45700;PMS5003;36277;32.852;-116.998;2022-11-23T13:39:03;1.00;1.00;1.00
45700;PMS5003;36277;32.852;-116.998;2022-11-23T13:49:42;1.50;1.50;1.25
45700;PMS5003;36277;32.852;-116.998;2022-11-23T13:57:18;1.00;1.00;1.00
45700;PMS5003;36277;32.852;-116.998;2022-11-23T13:59:44;1.75;1.75;1.50
45700;PMS5003;36277;32.852;-116.998;2022-11-23T14:15:11;1.00;1.00;1.00
45700;PMS5003;36277;32.852;-116.998;2022-11-23T14:20:48;2.00;2.00;2.00
45700;PMS5003;36277;32.852;-116.998;2022-11-23T14:23:59;1.50;1.50;1.00
45700;PMS5003;36277;32.852;-116.998;2022-11-23T14:29:33;1.25;1.25;1.00
45700;PMS5003;36277;32.852;-116.998;2022-11-23T14:32:31;0.50;0.50;0.50
45700;PMS5003;36277;32.852;-116.998;2022-11-23T14:41:18;1.00;1.00;1.00
45700;PMS5003;36277;32.852;-116.998;2022-11-23T14:43:50;1.00;1.00;1.00
45700;PMS5003;36277;32.852;-116.998;2022-11-23T14:46:19;2.00;2.00;2.00
45700;PMS5003;36277;32.852;-116.998;2022-11-23T14:48:48;2.00;2.00;2.00
45700;PMS5003;36277;32.852;-116.998;2022-11-23T14:51:22;2.00;2.00;2.00
45700;PMS5003;36277;32.852;-116.998;2022-11-23T14:53:56;1.00;1.00;1.00
45700;PMS5003;36277;32.852;-116.998;2022-11-23T14:56:40;2.00;2.00;2.00
45700;PMS5003;36277;32.852;-116.998;2022-11-23T14:59:31;1.50;1.50;1.00
45700;PMS5003;36277;32.852;-116.998;2022-11-23T15:02:02;2.25;2.25;2.25
45700;PMS5003;36277;32.852;-116.998;2022-11-23T15:04:53;1.25;1.25;1.00
45700;PMS5003;36277;32.852;-116.998;2022-11-23T15:07:23;1.50;1.50;1.00
45700;PMS5003;36277;32.852;-116.998;2022-11-23T15:12:41;2.00;2.00;2.00
45700;PMS5003;36277;32.852;-116.998;2022-11-23T15:15:22;1.00;1.00;1.00
45700;PMS5003;36277;32.852;-116.998;2022-11-23T15:17:56;3.00;3.00;2.25
45700;PMS5003;36277;32.852;-116.998;2022-11-23T15:20:30;1.00;1.00;1.00
45700;PMS5003;36277;32.852;-116.998;2022-11-23T15:23:02;2.00;2.00;2.00
45700;PMS5003;36277;32.852;-116.998;2022-11-23T15:25:29;2.00;2.00;2.00
45700;PMS5003;36277;32.852;-116.998;2022-11-23T15:27:56;1.25;1.25;1.00
45700;PMS5003;36277;32.852;-116.998;2022-11-23T15:30:27;2.00;2.00;2.00
45700;PMS5003;36277;32.852;-116.998;2022-11-23T15:32:55;2.25;2.25;2.00
45700;PMS5003;36277;32.852;-116.998;2022-11-23T15:35:27;2.25;2.25;2.25
45700;PMS5003;36277;32.852;-116.998;2022-11-23T15:37:59;2.50;2.50;2.50
45700;PMS5003;36277;32.852;-116.998;2022-11-23T15:40:28;0.50;0.50;0.50
45700;PMS5003;36277;32.852;-116.998;2022-11-23T15:42:57;2.50;2.50;2.00
45700;PMS5003;36277;32.852;-116.998;2022-11-23T15:45:33;4.00;4.00;4.00
45700;PMS5003;36277;32.852;-116.998;2022-11-23T15:48:11;3.00;3.00;2.50
45700;PMS5003;36277;32.852;-116.998;2022-11-23T15:50:51;4.00;4.00;3.00
45700;PMS5003;36277;32.852;-116.998;2022-11-23T15:53:28;4.00;4.00;3.00
45700;PMS5003;36277;32.852;-116.998;2022-11-23T15:56:10;1.50;1.50;1.00
45700;PMS5003;36277;32.852;-116.998;2022-11-23T15:58:51;3.50;3.50;2.25
45700;PMS5003;36277;32.852;-116.998;2022-11-23T16:01:19;2.75;2.75;2.00
45700;PMS5003;36277;32.852;-116.998;2022-11-23T16:03:50;3.00;3.00;3.00
45700;PMS5003;36277;32.852;-116.998;2022-11-23T16:06:35;3.00;3.00;2.75
45700;PMS5003;36277;32.852;-116.998;2022-11-23T16:09:30;3.00;2.50;2.00
45700;PMS5003;36277;32.852;-116.998;2022-11-23T16:12:27;2.00;2.00;1.00